Kaktovik, AK

6:08 AM AKDT on October 01, 2014 (GMT -0800)
Barter Island LRRS | Change Station
CLOSE
Current Station
Airport
Location: Barter Island,
Elevation: 7 ft
Nearby Weather Stations

Elev 7 ft 70.13 °N, 143.58 °W | Updated 1 hour ago

Light Snow
Light Snow Mist
34 °F
Feels Like 24 °F
N
16
Wind Variable Wind from West

Today
High -- | Low -- °F
--% Chance of Precip.
Yesterday
High -- | Low -- °F
Precip. -- in
7:51 AM 6:54 PM
Waxing Crescent, 48% visible
Pressure 30.06 in
Visibility 5.0 miles
Clouds Few 700 ft
Overcast 1300 ft
Windchill 24 °F
Dew Point 32 °F
Humidity 93%
Rainfall 0.00 in
Snow Depth Not available.
UV 0 out of 12
Pollen Not available.
Air Quality Not available.
Flu Activity Not available.
SPECI PABA 011301Z AUTO 26014KT 5SM -SN BR FEW007 OVC013 01/00 A3006 RMK AO2 RAE1223B1240E1242UPB1223E1240SNB1242 FZRANO PNO $

More Conditions Fewer Conditions

Pressure 30.06 in
Visibility 5.0 miles
Clouds Few 700 ft
Overcast 1300 ft
Windchill 24 °F
Dew Point 32 °F
Humidity 93%
Rainfall 0.00 in
Snow Depth Not available.
UV 0 out of 12
Pollen Not available.
Air Quality Not available.
Flu Activity Not available.
SPECI PABA 011301Z AUTO 26014KT 5SM -SN BR FEW007 OVC013 01/00 A3006 RMK AO2 RAE1223B1240E1242UPB1223E1240SNB1242 FZRANO PNO $

More Conditions Fewer Conditions

10-Day Weather Forecast

Almanac

Astronomy

Oct. 01, 2014 Rise Set
Actual Time 7:51 AM AKDT 6:54 PM AKDT
Civil Twilight 6:49 AM AKDT 7:55 PM AKDT
Nautical Twilight 5:36 AM AKDT 9:08 PM AKDT
Astronomical Twilight 4:08 AM AKDT 10:34 PM AKDT
Moon 5:53 PM AKDT 9:47 PM AKDT
Length of Visible Light 13h 05m
Length of Day
11h 03m
Tomorrow will be 8m 41s shorter.
Waxing Crescent, 48% of the Moon is Illuminated
Today
Waxing Crescent
Oct 1
First Quarter
Oct 8
Full
Oct 15
Last Quarter
Oct 23
New

Today's Extremes

State Highs State Lows

Community

WunderPhotos

Upload Photos

1,757,944 photos uploaded!

Nearby

Snow Depth

Station Depth Elevation
Gobblers Knob 4 in 2030 ft
Little Chena Ridge 2 in 2000 ft
Turnagain Pass 1 in 1880 ft
MF Bradley River 2 in 2300 ft
Grouse Creek Divide 0 in 700 ft

Earthquake Activity

City Distance Mag. Time & Date
No recent earthquake activity has been reported nearby.
Minimum magnitude displayed is 2.5.

Coastal Water Temperatures

Place Temperature
No Stations Reporting

Nearby Weather Stations